Terminal Aerodrome Forecast
Issued by NWS Sterling, VA

Current Version | Previous Version | Graphics & Text | Print | Product List | Glossary On
Versions: 1 2 3 4 5 6 7 8 9 10 11 12 13 14 15 16 17 18 19 20 21 22 23 24 25 26 27 28 29 30
000
FTUS41 KLWX 280605 AAA
TAFIAD
TAF AMD
KIAD 280605Z 2806/2912 35009KT P6SM BKN020 OVC040
     FM280700 25006KT P6SM OVC008
     FM280800 27009KT P6SM SCT090
     FM281400 25010G21KT P6SM SCT250
     FM281700 26011G26KT P6SM BKN060
     FM282200 29015KT P6SM SCT060
     FM290200 29009KT P6SM FEW250
     FM290600 29005KT P6SM FEW250=

USA.gov is the U.S. government's official web portal to all federal, state and local government web resources and services.